Time;durP1;ratioP1;P1;durP2;ratioP2;P2;SDS_P1;SDS_P2;PMS_P1;PMS_P2;Temp;Humidity;BMP_temperature;BMP_pressure;BME280_temperature;BME280_humidity;BME280_pressure;Samples;Min_cycle;Max_cycle;Signal;HPM_P1;HPM_P2
2024/01/23 05:15:55;;;;;;;15.38;2.72;;;;;;;8.39;71.61;100044.75;5096491;23;20029;31
2024/01/23 05:18:22;;;;;;;22.92;3.78;;;;;;;8.43;74.26;100058.56;4877274;29;20285;-74
2024/01/23 05:20:49;;;;;;;26.13;3.92;;;;;;;8.42;74.44;100054.25;4862683;29;20061;-76
2024/01/23 05:23:15;;;;;;;22.67;4.22;;;;;;;8.41;74.56;100069.13;4878537;29;20053;-75
2024/01/23 05:25:43;;;;;;;21.20;3.88;;;;;;;8.41;74.82;100066.50;4878598;29;20113;-76
2024/01/23 05:28:09;;;;;;;23.98;4.15;;;;;;;8.40;74.29;100070.06;4878632;29;20089;-75
2024/01/23 05:33:19;;;;;;;12.00;3.28;;;;;;;8.42;74.89;100072.63;4972307;28;20109;-77
2024/01/23 05:35:46;;;;;;;15.35;4.05;;;;;;;8.42;74.57;100088.34;4973928;28;20491;-77
2024/01/23 05:38:12;;;;;;;19.27;3.72;;;;;;;8.40;74.74;100091.03;4972709;28;20087;-75
2024/01/23 05:40:39;;;;;;;25.75;4.47;;;;;;;8.40;74.41;100095.41;4973338;28;20520;-78
2024/01/23 05:43:06;;;;;;;19.77;4.00;;;;;;;8.39;74.64;100097.22;4955744;28;20062;-77
2024/01/23 05:45:32;;;;;;;16.80;3.38;;;;;;;8.38;74.00;100102.53;4973480;28;20126;-76
2024/01/23 05:47:59;;;;;;;20.45;3.80;;;;;;;8.37;74.41;100096.41;4955856;28;20058;-76
2024/01/23 05:50:25;;;;;;;21.10;3.90;;;;;;;8.35;74.50;100114.81;4973365;28;20082;-76
2024/01/23 05:52:53;;;;;;;17.17;3.35;;;;;;;8.34;74.58;100118.38;4972857;28;20117;-77
2024/01/23 05:55:19;;;;;;;28.13;4.22;;;;;;;8.35;74.86;100129.72;4973016;28;20120;-76
2024/01/23 05:57:46;;;;;;;25.67;4.50;;;;;;;8.34;75.04;100133.28;4972877;28;20082;-77
2024/01/23 06:00:13;;;;;;;28.60;5.07;;;;;;;8.34;74.97;100149.03;4973193;28;20057;-78
2024/01/23 06:02:40;;;;;;;23.02;3.90;;;;;;;8.33;74.95;100142.91;4972748;28;20051;-80
2024/01/23 06:05:08;;;;;;;22.98;4.18;;;;;;;8.32;75.08;100143.84;4972880;28;20149;-76
2024/01/23 06:07:40;;;;;;;16.10;3.70;;;;;;;8.30;74.16;100143.03;4972975;28;20062;-76
2024/01/23 06:10:08;;;;;;;23.38;4.30;;;;;;;8.32;74.78;100153.47;4972985;28;20054;-77
2024/01/23 06:12:34;;;;;;;27.10;4.10;;;;;;;8.31;75.13;100150.00;4972578;28;20055;-77
2024/01/23 06:15:01;;;;;;;27.35;3.95;;;;;;;8.31;74.99;100155.25;4973171;28;20046;-75
2024/01/23 06:17:27;;;;;;;22.30;4.07;;;;;;;8.32;75.06;100163.94;4955579;28;20053;-78
2024/01/23 06:19:54;;;;;;;20.98;4.53;;;;;;;8.31;74.93;100154.38;4972851;28;20500;-76
2024/01/23 06:22:21;;;;;;;25.52;4.55;;;;;;;8.31;75.23;100157.00;4955228;28;20507;-76
2024/01/23 06:25:04;;;;;;;22.20;4.65;;;;;;;8.24;71.56;100177.38;4972565;28;20051;-77
2024/01/23 06:27:31;;;;;;;25.15;4.57;;;;;;;8.30;74.83;100179.75;4972703;28;20570;-77
2024/01/23 06:29:58;;;;;;;24.98;4.25;;;;;;;8.30;75.42;100185.00;4972556;28;20047;-77
2024/01/23 06:32:25;;;;;;;29.45;3.80;;;;;;;8.30;75.01;100179.75;4955003;28;20141;-78
2024/01/23 06:34:51;;;;;;;26.15;4.22;;;;;;;8.31;75.08;100191.09;4972556;28;20047;-76
2024/01/23 06:37:20;;;;;;;23.70;3.72;;;;;;;8.32;75.45;100192.81;4972407;28;20051;-76
2024/01/23 06:39:47;;;;;;;19.20;4.10;;;;;;;8.31;75.07;100194.59;4972365;28;20047;-79
2024/01/23 06:42:14;;;;;;;18.98;3.85;;;;;;;8.33;75.22;100210.25;4972294;28;20397;-77
2024/01/23 06:44:40;;;;;;;17.55;3.53;;;;;;;8.33;75.12;100205.00;4973093;28;20046;-77
2024/01/23 06:47:07;;;;;;;18.52;3.97;;;;;;;8.34;75.43;100202.31;4972744;28;20051;-76
2024/01/23 06:49:33;;;;;;;25.38;4.55;;;;;;;8.37;75.13;100219.69;4972890;28;20046;-78
2024/01/23 06:52:01;;;;;;;25.50;3.63;;;;;;;8.38;75.01;100225.81;4973268;28;20078;-76
2024/01/23 06:54:28;;;;;;;20.85;3.75;;;;;;;8.39;74.94;100233.63;4972913;28;20542;-77
2024/01/23 06:56:54;;;;;;;19.38;3.60;;;;;;;8.41;75.19;100242.25;4972956;28;20500;-76
2024/01/23 06:59:21;;;;;;;31.73;3.97;;;;;;;8.43;74.92;100244.84;4973207;28;20050;-77
2024/01/23 07:01:47;;;;;;;21.48;4.20;;;;;;;8.43;75.00;100243.06;4955883;28;20495;-78
2024/01/23 07:04:14;;;;;;;26.48;4.45;;;;;;;8.45;75.05;100249.09;4972024;28;20050;-83
2024/01/23 07:06:41;;;;;;;24.10;3.60;;;;;;;8.46;75.12;100249.97;4955394;28;20054;-77
2024/01/23 07:09:07;;;;;;;27.30;4.25;;;;;;;8.46;74.98;100258.66;4972431;28;20055;-76
2024/01/23 07:11:34;;;;;;;24.70;4.00;;;;;;;8.47;75.04;100277.91;4972904;28;20046;-76
2024/01/23 07:14:01;;;;;;;20.77;4.18;;;;;;;8.48;75.10;100277.84;4972269;28;20619;-81
2024/01/23 07:16:27;;;;;;;18.55;3.78;;;;;;;8.48;75.22;100290.97;4972664;28;20047;-76
2024/01/23 07:18:54;;;;;;;24.70;3.55;;;;;;;8.49;75.03;100294.44;4972528;28;20057;-76
2024/01/23 07:21:20;;;;;;;24.13;3.67;;;;;;;8.49;75.03;100289.22;4973030;28;20492;-79
2024/01/23 07:23:47;;;;;;;18.48;4.05;;;;;;;8.50;75.60;100284.78;4973383;28;20066;-76
2024/01/23 07:26:14;;;;;;;20.95;3.72;;;;;;;8.50;75.15;100285.66;4973134;28;20051;-79
2024/01/23 07:28:40;;;;;;;20.23;4.57;;;;;;;8.51;75.04;100299.63;4973115;28;20050;-76
2024/01/23 07:31:26;;;;;;;17.33;4.00;;;;;;;8.52;75.17;100299.56;4958770;28;20058;-77
2024/01/23 07:33:53;;;;;;;20.50;3.78;;;;;;;8.51;74.77;100292.59;4972758;28;20485;-76
2024/01/23 07:36:19;;;;;;;25.10;5.03;;;;;;;8.50;74.67;100295.28;4973284;28;20083;-77
2024/01/23 07:38:46;;;;;;;17.80;4.25;;;;;;;8.50;75.19;100306.66;4972987;28;20097;-81
2024/01/23 07:41:13;;;;;;;26.45;4.82;;;;;;;8.49;74.72;100310.19;4973083;28;20594;-78
2024/01/23 07:43:39;;;;;;;22.17;4.35;;;;;;;8.50;74.92;100327.63;4955707;28;20101;-76
2024/01/23 07:46:06;;;;;;;27.80;3.80;;;;;;;8.51;75.27;100328.47;4972965;28;20054;-76
2024/01/23 07:48:32;;;;;;;21.05;3.70;;;;;;;8.50;75.38;100338.13;4973210;28;20070;-78
2024/01/23 07:50:59;;;;;;;22.63;4.55;;;;;;;8.50;75.46;100332.03;4973122;28;20054;-78
2024/01/23 07:53:29;;;;;;;21.55;4.35;;;;;;;8.53;75.41;100342.44;4972080;28;20558;-77
2024/01/23 07:55:55;;;;;;;25.27;4.50;;;;;;;8.52;74.96;100349.41;4972721;28;20488;-77
2024/01/23 07:58:22;;;;;;;25.40;4.10;;;;;;;8.54;74.99;100358.13;4972227;28;20050;-80
2024/01/23 08:00:48;;;;;;;21.42;3.83;;;;;;;8.56;75.12;100363.31;4973575;28;20440;-77
2024/01/23 08:03:15;;;;;;;22.75;4.47;;;;;;;8.56;75.32;100364.16;4976628;28;20055;-76
2024/01/23 08:05:42;;;;;;;26.17;4.45;;;;;;;8.58;75.30;100371.97;4975677;28;20113;-79
2024/01/23 08:08:08;;;;;;;18.83;3.78;;;;;;;8.59;75.32;100378.91;4975217;28;20547;-79
2024/01/23 08:10:35;;;;;;;29.55;5.10;;;;;;;8.59;75.07;100378.91;4958693;28;20140;-77
2024/01/23 08:13:02;;;;;;;22.48;4.38;;;;;;;8.62;75.29;100376.19;4975886;28;20047;-77
2024/01/23 08:15:29;;;;;;;20.90;4.25;;;;;;;8.63;74.72;100393.63;4963660;28;20054;-79
2024/01/23 08:17:55;;;;;;;28.83;5.75;;;;;;;8.64;74.65;100405.00;4975767;28;20090;-79
2024/01/23 08:20:22;;;;;;;24.17;4.60;;;;;;;8.64;74.40;100408.50;4975046;28;20051;-76
2024/01/23 08:22:49;;;;;;;30.75;4.50;;;;;;;8.65;74.59;100410.19;4957946;28;20077;-79
2024/01/23 08:25:15;;;;;;;25.98;4.00;;;;;;;8.67;74.44;100412.75;4976277;28;20054;-77
2024/01/23 08:27:42;;;;;;;30.75;4.25;;;;;;;8.67;74.74;100425.88;4975902;28;20492;-77
2024/01/23 08:30:14;;;;;;;23.35;4.63;;;;;;;8.67;74.29;100418.84;4975790;28;20054;-80
2024/01/23 08:32:41;;;;;;;26.65;4.53;;;;;;;8.67;74.40;100426.72;4975732;28;20133;-81
2024/01/23 08:35:08;;;;;;;22.90;4.22;;;;;;;8.67;74.52;100431.13;4975716;28;20054;-77
2024/01/23 08:37:34;;;;;;;22.75;3.92;;;;;;;8.66;74.41;100429.41;4975466;28;20135;-77
2024/01/23 08:40:01;;;;;;;25.10;3.42;;;;;;;8.66;74.51;100427.66;4975375;28;20047;-75
2024/01/23 08:42:28;;;;;;;18.33;4.03;;;;;;;8.66;74.56;100435.53;4975016;28;20055;-81
2024/01/23 08:44:55;;;;;;;19.90;4.57;;;;;;;8.67;74.74;100445.09;4975495;28;20057;-76
2024/01/23 08:47:22;;;;;;;22.65;4.57;;;;;;;8.66;74.56;100438.16;4957973;28;20066;-80
2024/01/23 08:49:48;;;;;;;21.60;4.03;;;;;;;8.66;74.35;100448.63;4975559;28;20082;-80
2024/01/23 08:52:16;;;;;;;25.05;3.95;;;;;;;8.65;74.48;100452.19;4974900;28;20047;-79
2024/01/23 08:54:43;;;;;;;17.77;5.05;;;;;;;8.67;74.66;100458.22;4974869;28;20125;-79
2024/01/23 08:57:10;;;;;;;24.35;4.28;;;;;;;8.66;74.57;100450.41;4974774;28;20086;-77
2024/01/23 08:59:38;;;;;;;23.95;3.95;;;;;;;8.66;74.29;100469.63;4960739;28;20559;-80
2024/01/23 09:02:04;;;;;;;19.10;3.95;;;;;;;8.66;74.51;100467.00;4955166;28;20094;-77
2024/01/23 09:04:31;;;;;;;17.27;4.47;;;;;;;8.67;74.37;100465.25;4954916;29;20047;-79
2024/01/23 09:06:57;;;;;;;32.92;4.35;;;;;;;8.68;74.56;100480.09;4955326;28;20461;-78
2024/01/23 09:09:24;;;;;;;19.42;4.25;;;;;;;8.69;75.00;100476.53;4954780;28;20428;-77
2024/01/23 09:11:50;;;;;;;25.73;4.30;;;;;;;8.70;74.84;100481.75;4938512;29;20409;-78
2024/01/23 09:14:17;;;;;;;30.42;5.35;;;;;;;8.68;74.40;100480.91;4938139;29;20129;-76
2024/01/23 09:16:43;;;;;;;23.77;4.30;;;;;;;8.70;74.68;100475.63;4955398;28;20069;-76
2024/01/23 09:19:10;;;;;;;27.90;5.03;;;;;;;8.69;74.25;100515.91;4938094;29;20054;-79
2024/01/23 09:21:36;;;;;;;20.60;4.22;;;;;;;8.69;74.41;100492.28;4955133;28;20055;-77
2024/01/23 09:24:04;;;;;;;30.25;4.75;;;;;;;8.69;74.12;100492.28;4954712;28;20044;-77
2024/01/23 09:26:31;;;;;;;27.85;5.10;;;;;;;8.68;74.10;100494.03;4955203;28;20047;-77
2024/01/23 09:28:57;;;;;;;26.80;4.45;;;;;;;8.69;73.78;100497.53;4938288;29;20055;-75
2024/01/23 09:31:24;;;;;;;24.33;4.32;;;;;;;8.69;74.32;100489.66;4937981;29;20408;-76
2024/01/23 09:33:51;;;;;;;22.77;4.22;;;;;;;8.69;74.27;100493.16;4954968;29;20055;-77
2024/01/23 09:36:18;;;;;;;30.80;4.63;;;;;;;8.68;74.16;100507.16;4954936;28;20054;-78
2024/01/23 09:38:47;;;;;;;28.08;4.45;;;;;;;8.67;73.79;100515.97;4954820;29;20047;-75
2024/01/23 09:41:13;;;;;;;23.73;3.88;;;;;;;8.67;74.05;100509.88;4954795;28;20066;-80
2024/01/23 09:43:42;;;;;;;22.40;3.60;;;;;;;8.66;73.88;100511.63;4954325;28;20751;-76
2024/01/23 09:46:12;;;;;;;29.73;3.95;;;;;;;8.66;74.45;100511.63;4955017;29;20055;-76
2024/01/23 09:48:40;;;;;;;26.02;4.32;;;;;;;8.65;73.98;100524.81;4954953;29;20142;-77
2024/01/23 09:51:13;;;;;;;23.15;4.53;;;;;;;8.65;73.87;100517.81;4954535;28;20047;-76
2024/01/23 09:53:43;;;;;;;21.55;4.65;;;;;;;8.68;75.08;100528.16;4937680;29;20078;-75
2024/01/23 09:56:14;;;;;;;25.13;4.50;;;;;;;8.69;73.50;100532.53;4954744;29;20051;-76
2024/01/23 09:58:41;;;;;;;24.67;4.18;;;;;;;8.73;75.01;100531.50;4954482;29;20102;-75
2024/01/23 10:01:08;;;;;;;28.08;5.07;;;;;;;8.78;74.56;100540.97;4954640;29;20115;-76
2024/01/23 10:03:35;;;;;;;23.60;4.75;;;;;;;8.80;74.29;100554.88;4954455;28;20059;-81
2024/01/23 10:06:04;;;;;;;20.52;4.88;;;;;;;8.84;74.97;100548.63;4954545;28;20114;-77
2024/01/23 10:08:31;;;;;;;26.02;4.55;;;;;;;8.86;74.63;100555.53;4937538;29;20051;-78
2024/01/23 10:10:59;;;;;;;26.52;4.25;;;;;;;8.89;74.29;100559.78;4954171;28;20047;-78
2024/01/23 10:13:27;;;;;;;21.02;4.25;;;;;;;8.92;75.25;100561.44;4954142;28;20055;-76
2024/01/23 10:15:54;;;;;;;27.70;5.13;;;;;;;8.94;74.98;100563.09;4954393;29;20066;-78
2024/01/23 10:18:22;;;;;;;21.80;4.10;;;;;;;8.97;74.54;100567.41;4953887;29;20054;-76
2024/01/23 10:20:52;;;;;;;29.25;4.50;;;;;;;9.00;74.62;100556.78;4954046;29;20559;-78
2024/01/23 10:23:19;;;;;;;31.00;5.50;;;;;;;9.01;73.99;100574.22;4953568;28;20051;-76
2024/01/23 10:25:46;;;;;;;34.42;4.75;;;;;;;9.03;74.10;100564.53;4953685;28;20121;-80
2024/01/23 10:28:13;;;;;;;17.70;3.75;;;;;;;9.06;75.02;100550.44;4954245;29;20047;-76
2024/01/23 10:30:40;;;;;;;31.98;5.97;;;;;;;9.08;74.54;100559.13;4953794;28;20526;-76
2024/01/23 10:33:10;;;;;;;24.73;3.92;;;;;;;9.10;74.07;100559.91;4953229;28;20404;-76
2024/01/23 10:35:37;;;;;;;26.00;4.68;;;;;;;9.12;74.40;100555.44;4953633;29;20086;-76
2024/01/23 10:38:05;;;;;;;35.30;4.32;;;;;;;9.13;74.21;100550.13;4953902;28;20086;-78
2024/01/23 10:40:32;;;;;;;25.80;4.47;;;;;;;9.14;73.01;100548.38;4953619;29;20078;-77
2024/01/23 10:42:59;;;;;;;19.38;3.55;;;;;;;9.16;73.79;100559.66;4953445;29;20167;-80
2024/01/23 10:45:27;;;;;;;25.63;4.68;;;;;;;9.17;73.65;100542.16;4936286;29;20106;-77
2024/01/23 10:47:57;;;;;;;35.70;5.53;;;;;;;9.17;73.87;100545.63;4953756;29;20055;-78
2024/01/23 10:50:23;;;;;;;25.25;5.05;;;;;;;9.18;74.14;100538.59;4953707;29;20081;-77
2024/01/23 10:52:50;;;;;;;26.25;5.28;;;;;;;9.20;74.14;100539.41;4953321;28;20047;-76
2024/01/23 10:55:18;;;;;;;21.48;4.90;;;;;;;9.23;74.09;100562.91;4953605;28;20055;-78
2024/01/23 10:57:49;;;;;;;24.02;5.18;;;;;;;9.20;72.47;100537.63;4952145;28;20483;-77
2024/01/23 11:00:18;;;;;;;26.33;4.57;;;;;;;9.23;73.34;100545.38;4953170;29;20047;-80
2024/01/23 11:02:58;;;;;;;27.35;4.53;;;;;;;9.18;69.25;100549.97;4935991;29;20497;-80
2024/01/23 11:05:30;;;;;;;33.40;4.20;;;;;;;9.23;71.90;100548.03;4953824;29;20055;-78
2024/01/23 11:08:10;;;;;;;23.67;5.05;;;;;;;9.22;70.15;100534.94;4953322;29;20082;-77
2024/01/23 11:10:45;;;;;;;29.63;4.15;;;;;;;9.25;72.64;100526.94;4936103;29;20668;-77
2024/01/23 11:13:39;;;;;;;25.88;4.85;;;;;;;9.25;70.56;100519.06;4935926;29;20044;-77
2024/01/23 11:16:06;;;;;;;22.60;5.90;;;;;;;9.29;73.21;100541.66;4936030;29;20079;-78
2024/01/23 11:18:34;;;;;;;21.67;5.00;;;;;;;9.28;72.72;100531.22;4952923;29;20051;-77
2024/01/23 11:21:04;;;;;;;30.60;6.07;;;;;;;9.23;69.39;100532.25;4953005;29;20054;-78
2024/01/23 11:23:32;;;;;;;35.65;5.85;;;;;;;9.29;73.30;100530.28;4952836;28;20051;-80
2024/01/23 11:26:26;;;;;;;31.88;5.35;;;;;;;9.25;69.01;100540.94;4936156;29;20047;-77
2024/01/23 11:29:00;;;;;;;23.65;4.65;;;;;;;9.35;73.65;100538.78;4928944;29;20138;-76
2024/01/23 11:31:28;;;;;;;20.10;4.28;;;;;;;9.39;73.70;100531.66;5291496;23;20918;-77
2024/01/23 11:34:39;;;;;;;26.90;5.18;;;;;;;9.40;70.44;100533.38;4971902;28;20054;-79
2024/01/23 11:37:43;;;;;;;20.33;4.45;;;;;;;9.48;70.58;100515.53;4973860;28;20058;-79
2024/01/23 11:40:33;;;;;;;36.70;5.15;;;;;;;9.54;69.62;100522.31;4958236;28;20054;-77
2024/01/23 11:43:04;;;;;;;28.92;5.63;;;;;;;9.62;73.09;100520.22;4958040;28;20113;-78
2024/01/23 11:45:33;;;;;;;22.83;4.57;;;;;;;9.66;73.12;100534.09;4975064;28;20138;-79
2024/01/23 11:48:02;;;;;;;16.63;3.88;;;;;;;9.71;73.25;100526.00;4975122;28;20054;-78
2024/01/23 11:50:31;;;;;;;31.35;5.22;;;;;;;9.75;73.69;100543.38;4957880;28;20058;-78
2024/01/23 11:52:59;;;;;;;25.25;4.80;;;;;;;9.82;74.10;100559.75;4974902;28;20047;-78
2024/01/23 11:55:27;;;;;;;30.15;5.13;;;;;;;9.88;73.00;100549.00;4957745;28;20497;-77
2024/01/23 11:57:55;;;;;;;22.27;4.38;;;;;;;9.92;72.70;100540.06;4957691;28;20055;-76
2024/01/23 12:00:22;;;;;;;32.90;6.00;;;;;;;9.98;73.02;100539.78;4974700;28;20066;-77
2024/01/23 12:02:50;;;;;;;24.65;5.22;;;;;;;10.06;74.18;100538.63;4974748;28;20149;-80
2024/01/23 12:05:17;;;;;;;26.05;5.38;;;;;;;10.14;72.72;100518.94;4975138;28;20055;-78
2024/01/23 12:07:44;;;;;;;31.90;5.10;;;;;;;10.24;73.17;100527.31;4957663;28;20086;-77
2024/01/23 12:10:14;;;;;;;23.98;5.22;;;;;;;10.34;73.23;100532.16;4957077;28;20505;-77
2024/01/23 12:12:41;;;;;;;23.63;5.15;;;;;;;10.45;73.27;100529.09;4957276;28;20051;-77
2024/01/23 12:15:09;;;;;;;28.20;5.47;;;;;;;10.53;72.21;100525.22;4974700;28;20059;-77
2024/01/23 12:17:43;;;;;;;25.95;5.70;;;;;;;10.57;71.85;100504.84;4957579;28;20448;-77
2024/01/23 12:20:10;;;;;;;32.85;5.22;;;;;;;10.63;72.71;100509.00;4974514;28;20721;-77
2024/01/23 12:22:37;;;;;;;25.90;5.35;;;;;;;10.67;71.69;100500.91;4974269;28;20055;-78
2024/01/23 12:25:05;;;;;;;20.90;4.80;;;;;;;10.73;71.38;100507.66;4973962;28;20086;-78
2024/01/23 12:27:32;;;;;;;27.77;5.72;;;;;;;10.75;70.32;100494.41;4974355;28;20141;-77
2024/01/23 12:30:03;;;;;;;29.98;6.30;;;;;;;10.77;70.21;100484.69;4957775;28;20047;-78
2024/01/23 12:32:30;;;;;;;31.30;6.68;;;;;;;10.78;70.25;100481.13;4957158;28;20471;-78
2024/01/23 12:34:57;;;;;;;29.15;5.40;;;;;;;10.76;69.73;100483.81;4974369;28;20054;-77
2024/01/23 12:37:28;;;;;;;24.90;5.25;;;;;;;10.73;68.42;100505.00;4974448;28;20055;-77
2024/01/23 12:39:55;;;;;;;22.98;4.90;;;;;;;10.72;70.33;100492.78;4974220;28;20496;-77
2024/01/23 12:42:22;;;;;;;28.58;5.53;;;;;;;10.75;71.65;100489.16;4957052;28;20408;-76
2024/01/23 12:44:49;;;;;;;29.58;5.57;;;;;;;10.82;71.49;100491.44;4974405;28;20157;-78
2024/01/23 12:47:16;;;;;;;22.50;5.35;;;;;;;10.93;71.25;100501.50;4974007;28;20121;-77
2024/01/23 12:49:47;;;;;;;29.35;5.93;;;;;;;11.04;70.80;100487.81;4974375;28;20043;-79
2024/01/23 12:52:18;;;;;;;27.85;5.70;;;;;;;11.22;69.95;100490.50;4957453;28;20050;-77
2024/01/23 12:54:45;;;;;;;25.70;4.28;;;;;;;11.41;71.29;100486.97;4974410;28;20055;-77
2024/01/23 12:57:14;;;;;;;24.33;4.75;;;;;;;11.53;70.03;100480.22;4973771;28;20114;-78
2024/01/23 12:59:41;;;;;;;22.52;5.00;;;;;;;11.57;69.47;100492.31;4974047;28;20124;-76
2024/01/23 13:02:08;;;;;;;28.40;5.47;;;;;;;11.56;68.77;100470.38;4974010;28;20051;-77
2024/01/23 13:04:34;;;;;;;25.17;5.10;;;;;;;11.55;69.16;100470.47;4973698;28;20065;-77
2024/01/23 13:07:02;;;;;;;22.20;5.07;;;;;;;11.53;68.87;100469.69;4973778;28;20062;-76
2024/01/23 13:09:29;;;;;;;23.88;5.07;;;;;;;11.51;68.66;100480.28;4974069;28;20051;-77
2024/01/23 13:11:56;;;;;;;25.42;5.22;;;;;;;11.51;68.59;100477.66;4956485;28;20058;-78
2024/01/23 13:14:23;;;;;;;31.40;5.50;;;;;;;11.50;68.01;100483.88;4973523;28;20133;-76
2024/01/23 13:16:51;;;;;;;24.67;4.95;;;;;;;11.44;66.95;100476.28;4973827;28;20053;-77
2024/01/23 13:19:19;;;;;;;28.02;6.10;;;;;;;11.38;67.01;100476.56;4956431;28;20139;-78
2024/01/23 13:21:48;;;;;;;28.42;5.38;;;;;;;11.28;67.29;100474.38;4973548;28;20440;-78
2024/01/23 13:24:15;;;;;;;28.80;5.30;;;;;;;11.15;66.13;100476.75;4973440;28;20051;-77
2024/01/23 13:26:41;;;;;;;25.25;5.70;;;;;;;11.07;67.97;100465.72;4973701;28;20117;-76
2024/01/23 13:29:09;;;;;;;22.05;5.35;;;;;;;10.98;67.78;100467.00;4973673;28;20101;-78
2024/01/23 13:31:43;;;;;;;22.67;6.00;;;;;;;10.90;68.01;100458.59;4973502;28;20047;-76
2024/01/23 13:34:10;;;;;;;24.52;5.20;;;;;;;10.85;68.54;100466.75;4973150;28;20503;-77
2024/01/23 13:36:37;;;;;;;24.40;4.65;;;;;;;10.77;68.27;100464.44;4973545;28;20062;-77
2024/01/23 13:39:06;;;;;;;27.75;5.53;;;;;;;10.66;66.96;100453.56;4973391;28;20051;-75
2024/01/23 13:41:33;;;;;;;23.00;4.75;;;;;;;10.59;67.33;100457.41;4973297;28;20492;-77
2024/01/23 13:43:59;;;;;;;27.73;5.30;;;;;;;10.50;67.33;100442.91;4955813;28;20054;-75
2024/01/23 13:46:26;;;;;;;25.15;4.60;;;;;;;10.41;67.61;100452.03;4973208;28;20051;-76
2024/01/23 13:48:52;;;;;;;24.30;4.85;;;;;;;10.35;67.90;100454.94;4973571;28;20483;-78
2024/01/23 13:51:19;;;;;;;24.67;4.55;;;;;;;10.27;67.99;100453.50;4955937;28;20046;-76
2024/01/23 13:53:46;;;;;;;20.50;4.68;;;;;;;10.21;67.59;100453.75;4939843;28;20060;-75
2024/01/23 13:56:12;;;;;;;21.90;4.22;;;;;;;10.17;68.04;100449.59;4973135;28;20485;-77
2024/01/23 13:58:39;;;;;;;23.13;4.88;;;;;;;10.12;68.26;100456.78;4954931;28;20055;-75
2024/01/23 14:01:05;;;;;;;27.88;4.85;;;;;;;10.06;68.09;100465.84;4955491;28;20486;-75
2024/01/23 14:03:33;;;;;;;22.88;4.38;;;;;;;10.03;68.52;100452.81;4955428;28;20053;-76
2024/01/23 14:06:02;;;;;;;23.05;4.45;;;;;;;9.98;68.57;100463.50;4972935;28;20054;-77
2024/01/23 14:08:29;;;;;;;29.67;5.72;;;;;;;9.94;68.03;100469.00;4972552;28;20492;-76
2024/01/23 14:10:55;;;;;;;20.67;4.50;;;;;;;9.89;67.79;100463.91;4955630;28;20133;-75
2024/01/23 14:13:22;;;;;;;19.90;4.50;;;;;;;9.85;68.47;100455.31;4972296;28;20054;-75
2024/01/23 14:15:49;;;;;;;23.85;4.53;;;;;;;9.81;68.35;100456.38;4972365;28;20058;-77
2024/01/23 14:18:15;;;;;;;27.05;5.30;;;;;;;9.77;68.10;100449.53;4955210;28;20393;-75
2024/01/23 14:20:42;;;;;;;27.00;5.15;;;;;;;9.74;68.61;100450.50;4972316;28;20051;-76
2024/01/23 14:23:11;;;;;;;25.80;4.43;;;;;;;9.71;68.33;100452.41;4972223;28;20503;-76
2024/01/23 14:25:38;;;;;;;24.15;4.43;;;;;;;9.68;68.66;100442.03;4972325;28;20097;-76
2024/01/23 14:28:05;;;;;;;27.38;4.82;;;;;;;9.64;68.08;100441.28;4972434;28;20090;-76
2024/01/23 14:30:32;;;;;;;25.63;5.03;;;;;;;9.62;68.30;100435.25;4972180;28;20050;-75
2024/01/23 14:32:59;;;;;;;23.02;4.97;;;;;;;9.59;68.44;100436.25;4972129;28;20047;-76
2024/01/23 14:35:26;;;;;;;24.33;4.50;;;;;;;9.58;68.92;100425.78;4972325;28;20126;-77
2024/01/23 14:37:52;;;;;;;23.50;4.60;;;;;;;9.57;69.02;100429.34;4972235;28;20053;-80
2024/01/23 14:40:19;;;;;;;17.42;4.25;;;;;;;9.56;69.14;100432.88;4972341;28;20508;-76
2024/01/23 14:42:46;;;;;;;22.55;4.72;;;;;;;9.54;68.83;100439.97;4972128;28;20146;-75
2024/01/23 14:45:13;;;;;;;25.20;4.97;;;;;;;9.54;69.18;100445.22;4972149;28;20133;-77
2024/01/23 14:47:42;;;;;;;22.95;4.20;;;;;;;9.52;69.09;100430.38;4972142;28;20058;-77
2024/01/23 14:50:09;;;;;;;20.30;4.93;;;;;;;9.51;68.63;100438.31;4954806;28;20109;-77
2024/01/23 14:52:38;;;;;;;24.60;4.38;;;;;;;9.51;68.88;100427.81;4971784;28;20054;-76
2024/01/23 14:55:05;;;;;;;24.90;5.10;;;;;;;9.48;68.63;100428.81;4971897;28;20057;-76
2024/01/23 14:57:32;;;;;;;24.92;4.30;;;;;;;9.47;68.94;100423.59;4954490;28;20055;-77
2024/01/23 14:59:59;;;;;;;23.20;4.18;;;;;;;9.46;68.43;100421.91;4971642;28;20047;-76
2024/01/23 15:02:25;;;;;;;27.40;5.32;;;;;;;9.45;68.86;100410.53;4971993;28;20054;-75
2024/01/23 15:04:52;;;;;;;28.08;4.63;;;;;;;9.44;68.94;100413.22;4971620;28;20065;-78
2024/01/23 15:07:20;;;;;;;22.02;4.45;;;;;;;9.42;68.73;100405.38;4971842;28;20047;-75
2024/01/23 15:09:47;;;;;;;25.25;4.10;;;;;;;9.42;68.90;100399.31;4971628;28;20047;-76
2024/01/23 15:12:14;;;;;;;28.25;4.43;;;;;;;9.41;68.16;100381.84;4954218;28;20061;-77
2024/01/23 15:14:41;;;;;;;22.75;5.05;;;;;;;9.40;68.88;100383.59;4971801;28;20134;-77
2024/01/23 15:17:10;;;;;;;17.40;4.18;;;;;;;9.40;69.04;100386.22;4954916;28;20137;-76
2024/01/23 15:19:37;;;;;;;24.95;4.88;;;;;;;9.41;69.18;100398.44;4971755;28;20051;-76
2024/01/23 15:22:04;;;;;;;14.80;3.92;;;;;;;9.41;68.63;100397.59;4971597;28;20050;-77
2024/01/23 15:24:34;;;;;;;19.92;4.60;;;;;;;9.40;69.08;100370.47;4971590;28;20101;-75
2024/01/23 15:27:01;;;;;;;23.25;5.07;;;;;;;9.39;69.04;100353.81;4971665;28;20057;-75
2024/01/23 15:29:27;;;;;;;31.10;4.20;;;;;;;9.38;69.06;100359.13;4971688;28;20058;-78
2024/01/23 15:31:54;;;;;;;27.20;4.32;;;;;;;9.37;68.49;100374.06;4954332;28;20113;-75
2024/01/23 15:34:20;;;;;;;22.92;4.40;;;;;;;9.37;69.37;100365.31;4954330;28;20051;-76
2024/01/23 15:36:47;;;;;;;21.25;4.28;;;;;;;9.35;69.18;100349.63;4971514;28;20053;-76
2024/01/23 15:39:16;;;;;;;23.17;4.45;;;;;;;9.36;69.46;100343.47;4971388;28;20081;-75
2024/01/23 15:41:45;;;;;;;20.15;4.72;;;;;;;9.35;69.25;100351.41;4971736;28;20084;-75
2024/01/23 15:44:11;;;;;;;15.80;3.88;;;;;;;9.35;69.42;100338.28;4971060;28;20050;-76
2024/01/23 15:46:38;;;;;;;24.58;4.20;;;;;;;9.35;69.61;100331.22;4971499;28;20050;-75
2024/01/23 15:49:05;;;;;;;28.75;4.40;;;;;;;9.36;69.75;100322.44;4971245;28;20055;-78
2024/01/23 15:51:31;;;;;;;23.33;3.75;;;;;;;9.36;69.75;100322.44;4971488;28;20051;-76
2024/01/23 15:54:02;;;;;;;26.50;4.53;;;;;;;9.36;69.43;100314.56;4971167;28;20153;-76
2024/01/23 15:56:29;;;;;;;27.70;5.50;;;;;;;9.36;69.74;100305.81;4971246;28;20502;-77
2024/01/23 15:58:56;;;;;;;26.27;4.13;;;;;;;9.37;70.27;100303.13;4971372;28;20058;-76
2024/01/23 16:01:23;;;;;;;24.60;4.93;;;;;;;9.35;69.57;100289.19;4971285;28;20086;-76
2024/01/23 16:03:52;;;;;;;22.83;4.60;;;;;;;9.36;70.00;100305.81;4971022;28;20050;-76
2024/01/23 16:06:18;;;;;;;26.00;4.60;;;;;;;9.33;70.15;100295.44;4954036;28;20487;-75
2024/01/23 16:08:45;;;;;;;26.52;4.68;;;;;;;9.32;69.95;100273.59;4971394;28;20058;-76
2024/01/23 16:11:12;;;;;;;25.70;4.38;;;;;;;9.33;70.59;100284.94;4971154;28;20086;-76
2024/01/23 16:13:38;;;;;;;14.57;4.22;;;;;;;9.31;70.79;100263.97;4953821;28;20078;-77
2024/01/23 16:16:06;;;;;;;30.05;4.75;;;;;;;9.29;70.65;100263.19;4971025;28;20558;-75
2024/01/23 16:18:32;;;;;;;27.13;5.03;;;;;;;9.23;70.92;100256.44;4971078;28;20086;-77
2024/01/23 16:21:00;;;;;;;26.75;4.93;;;;;;;9.20;71.03;100251.31;4970842;28;20097;-76
2024/01/23 16:23:26;;;;;;;24.38;5.05;;;;;;;9.17;71.57;100254.09;4956886;28;20055;-76
2024/01/23 16:25:55;;;;;;;21.45;4.72;;;;;;;9.13;71.62;100242.00;4957501;28;20069;-75
2024/01/23 16:28:21;;;;;;;20.30;5.13;;;;;;;9.10;71.84;100250.00;4957415;28;20463;-77
2024/01/23 16:30:48;;;;;;;24.95;5.68;;;;;;;9.06;72.18;100238.78;4974430;28;20051;-76
2024/01/23 16:33:14;;;;;;;26.02;5.97;;;;;;;9.06;72.42;100230.03;4974518;28;20050;-76
2024/01/23 16:35:41;;;;;;;29.98;5.00;;;;;;;9.04;72.86;100232.72;4974751;28;20134;-76
2024/01/23 16:38:12;;;;;;;38.38;6.32;;;;;;;9.02;72.86;100228.47;4974863;28;20401;-77
2024/01/23 16:40:38;;;;;;;30.02;6.15;;;;;;;9.02;72.96;100225.84;4974764;28;20105;-76
2024/01/23 16:43:06;;;;;;;31.13;6.22;;;;;;;9.01;73.29;100222.34;4974286;28;20106;-76
2024/01/23 16:45:32;;;;;;;30.00;6.53;;;;;;;9.03;73.74;100214.41;4974105;28;20047;-77